METAR Formatted Surface Weather Observation
Issued by NWS

Home | Current Version | Previous Version | Text Only | Print | Product List | Glossary On
Versions: 1 2 3 4 5 6 7 8 9 10 11 12 13 14 15 16 17 18 19 20 21 22 23 24 25 26 27 28 29 30 31 32 33 34 35 36 37 38 39 40 41 42 43 44 45 46 47 48 49 50
000
SAUS41 KAKQ 210557
MTRNCA
METAR KNCA 210556Z AUTO 36013KT 8SM -RA OVC009 22/21 A2983 RMK AO2
CIG 005V015 SLP102 P0003 60007 T02170206 10217 20211 56027



USA.gov is the U.S. government's official web portal to all federal, state and local government web resources and services.